Погода Дернана 2 недели

Дерна, Ливия

23 февраля-07 марта
  • 23февраля
    Сегодня
    +13°
    +21°
    Ясно и безоблачно
    ВремяПогодаТемператураВлажностьДавлениеВетер, м/сВероятность осадков
    02:00Ясно и безоблачно+13°C89 %759 мм2.8 м/с2 %
    05:00Ясно и безоблачно+13°C83 %758 мм2.9 м/с2 %
    08:00Ясно и безоблачно+14°C81 %758 мм3.7 м/с2 %
    11:00Ясно и безоблачно+19°C52 %759 мм3.5 м/с2 %
    14:00Ясно и безоблачно+21°C47 %758 мм3.4 м/с2 %
    17:00Небольшая облачность+20°C59 %758 мм4.8 м/с5 %
    20:00Ясно и безоблачно+17°C79 %759 мм4.4 м/с2 %
    23:00Ясно и безоблачно+14°C89 %759 мм3.6 м/с2 %
  • 24февраля
    Суббота
    +15°
    +23°
    Ясно и безоблачно
    ВремяПогодаТемператураВлажностьДавлениеВетер, м/сВероятность осадков
    02:00Ясно и безоблачно+14°C90 %758 мм4.0 м/с2 %
    05:00Ясно и безоблачно+13°C85 %758 мм3.2 м/с2 %
    08:00Ясно и безоблачно+15°C82 %759 мм3.5 м/с2 %
    11:00Ясно и безоблачно+20°C52 %760 мм3.6 м/с2 %
    14:00Ясно и безоблачно+22°C44 %758 мм3.5 м/с2 %
    17:00Ясно и безоблачно+22°C50 %758 мм4.4 м/с2 %
    20:00Ясно и безоблачно+18°C79 %758 мм4.9 м/с2 %
    23:00Небольшая облачность+16°C84 %758 мм5.2 м/с2 %
  • 25февраля
    Воскресенье
    +11°
    +26°
    Облачно с прояснениями
    ВремяПогодаТемператураВлажностьДавлениеВетер, м/сВероятность осадков
    02:00Практически безоблачно+16°C64 %757 мм4.4 м/с2 %
    05:00Ясно и безоблачно+15°C54 %756 мм5.7 м/с2 %
    08:00Облачно с прояснениями+16°C55 %755 мм6.9 м/с2 %
    11:00Ясно и безоблачно+21°C42 %755 мм9.6 м/с2 %
    14:00Облачно с прояснениями+25°C29 %751 мм10.5 м/с2 %
    17:00Практически безоблачно+25°C24 %750 мм6.9 м/с5 %
    20:00Облачно с прояснениями+18°C88 %752 мм4.4 м/с43 %
    23:00Ясно и безоблачно+13°C80 %753 мм2.3 м/с42 %
  • 26февраля
    Понедельник
    +13°
    +21°
    Облачно с прояснениями
    ВремяПогодаТемператураВлажностьДавлениеВетер, м/сВероятность осадков
    02:00Ясно и безоблачно+11°C78 %753 мм3.2 м/с8 %
    05:00Ясно и безоблачно+13°C74 %752 мм4.6 м/с3 %
    08:00Ясно и безоблачно+14°C73 %752 мм5.6 м/с4 %
    11:00Небольшая облачность+19°C44 %752 мм6.4 м/с8 %
    14:00Облачно с прояснениями+20°C38 %752 мм8.5 м/с20 %
    17:00Ясно и безоблачно+19°C48 %752 мм7.5 м/с14 %
    20:00Ясно и безоблачно+17°C62 %754 мм5.0 м/с16 %
    23:00Ясно и безоблачно+14°C69 %755 мм4.7 м/с17 %
  • 27февраля
    Вторник
    +13°
    +20°
    Практически безоблачно
    ВремяПогодаТемператураВлажностьДавлениеВетер, м/сВероятность осадков
    02:00Ясно и безоблачно+13°C70 %755 мм4.1 м/с16 %
    05:00Ясно и безоблачно+14°C74 %755 мм3.7 м/с7 %
    08:00Практически безоблачно+15°C72 %756 мм3.0 м/с9 %
    11:00Облачно с прояснениями+18°C54 %757 мм2.7 м/с8 %
    14:00Практически безоблачно+19°C55 %756 мм2.8 м/с2 %
    17:00Облачно с прояснениями+19°C64 %755 мм3.7 м/с2 %
    20:00Облачно с прояснениями+17°C80 %756 мм3.1 м/с2 %
    23:00Облачно с прояснениями+15°C84 %757 мм3.8 м/с2 %
Мы используем cookies
Соглашаюсь